Time;durP1;ratioP1;P1;durP2;ratioP2;P2;SDS_P1;SDS_P2;PMS_P1;PMS_P2;Temp;Humidity;BMP_temperature;BMP_pressure;BME280_temperature;BME280_humidity;BME280_pressure;Samples;Min_cycle;Max_cycle;Signal;HPM_P1;HPM_P2
2022/11/18 00:01:06;;;;;;;21.67;10.77;;;;;;;;;;5027293;28;20021;-69
2022/11/18 00:03:31;;;;;;;20.88;11.18;;;;;;;;;;5045529;28;20028;-68
2022/11/18 00:05:57;;;;;;;21.02;11.13;;;;;;;;;;5026621;28;20079;-66
2022/11/18 00:08:26;;;;;;;21.90;11.18;;;;;;;;;;5026765;28;20017;-66
2022/11/18 00:10:52;;;;;;;28.48;12.55;;;;;;;;;;5026510;28;20033;-67
2022/11/18 00:16:03;;;;;;;21.17;11.80;;;;;;;;;;5032450;28;20031;-68
2022/11/18 00:18:28;;;;;;;23.77;12.05;;;;;;;;;;5030738;28;20021;-67
2022/11/18 00:20:54;;;;;;;24.88;12.52;;;;;;;;;;5030834;28;20017;-69
2022/11/18 00:23:19;;;;;;;27.50;13.57;;;;;;;;;;5031755;28;20052;-66
2022/11/18 00:25:44;;;;;;;26.27;13.35;;;;;;;;;;5030424;28;20014;-67
2022/11/18 00:28:09;;;;;;;22.95;11.27;;;;;;;;;;5030976;28;20484;-67
2022/11/18 00:30:35;;;;;;;29.02;12.90;;;;;;;;;;5032504;28;20021;-66
2022/11/18 00:33:00;;;;;;;27.88;13.05;;;;;;;;;;5029989;28;20108;-68
2022/11/18 00:35:28;;;;;;;26.25;13.57;;;;;;;;;;5030529;28;20537;-67
2022/11/18 00:37:53;;;;;;;28.45;14.00;;;;;;;;;;5031061;28;20021;-69
2022/11/18 00:40:19;;;;;;;27.60;13.68;;;;;;;;;;5030957;28;20017;-66
2022/11/18 00:42:50;;;;;;;31.33;14.10;;;;;;;;;;5025331;28;20085;-70
2022/11/18 00:45:15;;;;;;;25.38;14.25;;;;;;;;;;5031788;28;20097;-65
2022/11/18 00:47:40;;;;;;;30.92;13.95;;;;;;;;;;5031069;28;20109;-68
2022/11/18 00:50:06;;;;;;;32.95;16.02;;;;;;;;;;5030939;28;20097;-69
2022/11/18 00:52:31;;;;;;;35.08;14.82;;;;;;;;;;5031911;28;20134;-69
2022/11/18 00:54:56;;;;;;;27.13;14.70;;;;;;;;;;5029394;28;20022;-66
2022/11/18 00:57:21;;;;;;;28.83;13.50;;;;;;;;;;5030591;28;20040;-69
2022/11/18 00:59:47;;;;;;;33.63;14.80;;;;;;;;;;5030220;28;20033;-68
2022/11/18 01:02:12;;;;;;;29.38;15.30;;;;;;;;;;5028197;28;20025;-69
2022/11/18 01:04:37;;;;;;;29.50;14.57;;;;;;;;;;5028816;28;20027;-69
2022/11/18 01:07:02;;;;;;;33.28;14.05;;;;;;;;;;5028687;28;20025;-68
2022/11/18 01:09:28;;;;;;;31.17;17.27;;;;;;;;;;5030656;28;20017;-67
2022/11/18 01:14:36;;;;;;;31.85;15.13;;;;;;;;;;5030594;28;20031;-69
2022/11/18 01:17:02;;;;;;;33.72;17.15;;;;;;;;;;5030348;28;20025;-69
2022/11/18 01:19:27;;;;;;;34.25;17.02;;;;;;;;;;5026954;28;20026;-66
2022/11/18 01:21:53;;;;;;;32.65;16.38;;;;;;;;;;5030692;28;20021;-67
2022/11/18 01:24:18;;;;;;;32.65;17.20;;;;;;;;;;5030131;28;20139;-66
2022/11/18 01:26:43;;;;;;;33.15;16.08;;;;;;;;;;5028577;28;20064;-67
2022/11/18 01:29:11;;;;;;;35.13;17.38;;;;;;;;;;5030214;28;20020;-67
2022/11/18 01:31:37;;;;;;;35.00;17.17;;;;;;;;;;5030579;28;20459;-67
2022/11/18 01:34:03;;;;;;;36.25;16.63;;;;;;;;;;5029846;28;20032;-69
2022/11/18 01:36:28;;;;;;;39.05;18.27;;;;;;;;;;5029938;28;20025;-69
2022/11/18 01:38:54;;;;;;;37.33;17.45;;;;;;;;;;5030290;28;20017;-67
2022/11/18 01:41:20;;;;;;;45.28;18.75;;;;;;;;;;5025351;28;20100;-66
2022/11/18 01:43:47;;;;;;;40.83;19.90;;;;;;;;;;5024821;28;20031;-68
2022/11/18 01:46:12;;;;;;;45.30;19.08;;;;;;;;;;5029856;28;20018;-65
2022/11/18 01:48:38;;;;;;;38.97;19.17;;;;;;;;;;5029265;28;20030;-68
2022/11/18 01:51:03;;;;;;;41.58;16.90;;;;;;;;;;5030479;28;20021;-68
2022/11/18 01:53:31;;;;;;;40.95;18.65;;;;;;;;;;5029593;28;20530;-67
2022/11/18 01:55:59;;;;;;;38.55;17.92;;;;;;;;;;5029865;28;20036;-69
2022/11/18 01:58:34;;;;;;;48.23;20.33;;;;;;;;;;5028936;28;20479;-69
2022/11/18 02:01:00;;;;;;;42.28;20.42;;;;;;;;;;5030442;28;20247;-68
2022/11/18 02:03:26;;;;;;;38.42;18.50;;;;;;;;;;5026538;28;20021;-69
2022/11/18 02:05:52;;;;;;;43.40;20.73;;;;;;;;;;5030395;28;20026;-68
2022/11/18 02:08:18;;;;;;;34.30;18.00;;;;;;;;;;5026862;28;20057;-69
2022/11/18 02:10:43;;;;;;;41.53;17.92;;;;;;;;;;5026086;28;20130;-66
2022/11/18 02:13:09;;;;;;;40.55;18.77;;;;;;;;;;5029310;28;20017;-67
2022/11/18 02:15:50;;;;;;;43.55;19.65;;;;;;;;;;5029867;28;20029;-66
2022/11/18 02:18:21;;;;;;;41.22;18.70;;;;;;;;;;5029084;28;20053;-67
2022/11/18 02:20:48;;;;;;;44.45;19.55;;;;;;;;;;5028694;28;20014;-69
2022/11/18 02:23:25;;;;;;;39.88;19.85;;;;;;;;;;5029958;28;20017;-69
2022/11/18 02:25:59;;;;;;;40.13;18.65;;;;;;;;;;5029111;28;20024;-69
2022/11/18 02:28:30;;;;;;;44.58;20.58;;;;;;;;;;5028550;28;20017;-69
2022/11/18 02:30:56;;;;;;;41.22;18.73;;;;;;;;;;5029853;28;20036;-69
2022/11/18 02:33:26;;;;;;;42.30;20.13;;;;;;;;;;5029208;28;20025;-69
2022/11/18 02:36:14;;;;;;;41.40;18.70;;;;;;;;;;5029167;28;20029;-68
2022/11/18 02:38:42;;;;;;;46.60;19.48;;;;;;;;;;5025342;28;20106;-68
2022/11/18 02:41:09;;;;;;;36.85;18.98;;;;;;;;;;5026746;28;20112;-67
2022/11/18 02:43:37;;;;;;;45.95;21.15;;;;;;;;;;5023736;28;20018;-67
2022/11/18 02:46:05;;;;;;;42.33;19.92;;;;;;;;;;5027904;28;20036;-68
2022/11/18 02:48:32;;;;;;;39.83;19.20;;;;;;;;;;5028425;28;20496;-67
2022/11/18 02:50:59;;;;;;;42.83;18.35;;;;;;;;;;5029027;28;20037;-68
2022/11/18 02:53:27;;;;;;;45.08;19.67;;;;;;;;;;5028623;28;20017;-68
2022/11/18 02:55:53;;;;;;;44.90;20.48;;;;;;;;;;5029272;28;20021;-67
2022/11/18 02:58:19;;;;;;;44.95;20.45;;;;;;;;;;5026422;28;20021;-66
2022/11/18 03:00:51;;;;;;;43.72;19.83;;;;;;;;;;5029714;28;20029;-68
2022/11/18 03:03:25;;;;;;;48.55;20.63;;;;;;;;;;5028859;28;20016;-66
2022/11/18 03:06:11;;;;;;;41.35;17.65;;;;;;;;;;5028791;28;20056;-65
2022/11/18 03:08:46;;;;;;;36.28;16.88;;;;;;;;;;4995444;28;20032;-69
2022/11/18 03:11:11;;;;;;;47.80;18.85;;;;;;;;;;5025999;28;20018;-67
2022/11/18 03:14:00;;;;;;;42.53;19.20;;;;;;;;;;5028642;28;20025;-66
2022/11/18 03:16:28;;;;;;;41.85;19.48;;;;;;;;;;5025407;28;20558;-68
2022/11/18 03:19:06;;;;;;;41.55;19.67;;;;;;;;;;5028125;28;20088;-68
2022/11/18 03:21:36;;;;;;;41.70;18.50;;;;;;;;;;5027471;28;20021;-65
2022/11/18 03:24:14;;;;;;;39.03;18.15;;;;;;;;;;5029007;28;20243;-67
2022/11/18 03:26:42;;;;;;;37.83;17.70;;;;;;;;;;5015823;28;20075;-67
2022/11/18 03:29:22;;;;;;;43.10;18.85;;;;;;;;;;5028989;28;20027;-69
2022/11/18 03:31:56;;;;;;;46.10;18.38;;;;;;;;;;5029462;28;20109;-69
2022/11/18 03:34:27;;;;;;;38.28;18.27;;;;;;;;;;5028268;28;20021;-68
2022/11/18 03:36:55;;;;;;;42.83;19.35;;;;;;;;;;5028283;28;20513;-69
2022/11/18 03:39:21;;;;;;;38.88;18.27;;;;;;;;;;5028307;28;20021;-65
2022/11/18 03:41:50;;;;;;;48.58;18.90;;;;;;;;;;5026332;28;20093;-68
2022/11/18 03:44:19;;;;;;;37.78;17.40;;;;;;;;;;5028054;28;20098;-67
2022/11/18 03:46:46;;;;;;;36.58;17.20;;;;;;;;;;5028214;28;20067;-67
2022/11/18 03:49:14;;;;;;;43.28;19.23;;;;;;;;;;5029031;28;20017;-68
2022/11/18 03:51:45;;;;;;;36.22;16.73;;;;;;;;;;5032967;28;20027;-68
2022/11/18 03:54:13;;;;;;;39.85;19.63;;;;;;;;;;5032672;28;20093;-67
2022/11/18 03:56:41;;;;;;;40.38;18.33;;;;;;;;;;5031831;28;20471;-68
2022/11/18 03:59:12;;;;;;;45.77;19.73;;;;;;;;;;5032254;28;20151;-69
2022/11/18 04:01:37;;;;;;;40.70;18.30;;;;;;;;;;5033123;28;20052;-66
2022/11/18 04:04:03;;;;;;;37.35;18.65;;;;;;;;;;5026003;28;20020;-67
2022/11/18 04:06:41;;;;;;;38.90;18.10;;;;;;;;;;5031482;28;20392;-67
2022/11/18 04:09:29;;;;;;;45.37;17.40;;;;;;;;;;5026316;28;20029;-69
2022/11/18 04:12:06;;;;;;;42.30;20.33;;;;;;;;;;5026433;28;20491;-65
2022/11/18 04:14:42;;;;;;;38.20;17.27;;;;;;;;;;5031662;28;20118;-67
2022/11/18 04:17:12;;;;;;;41.70;18.77;;;;;;;;;;5031745;28;20121;-68
2022/11/18 04:19:38;;;;;;;44.15;19.50;;;;;;;;;;5031933;28;20103;-67
2022/11/18 04:22:03;;;;;;;42.30;18.77;;;;;;;;;;5032435;28;20383;-68
2022/11/18 04:24:29;;;;;;;44.67;18.33;;;;;;;;;;5031360;28;20024;-67
2022/11/18 04:26:54;;;;;;;44.80;18.27;;;;;;;;;;5031362;28;20032;-70
2022/11/18 04:29:19;;;;;;;48.00;19.80;;;;;;;;;;5031686;28;20078;-68
2022/11/18 04:31:44;;;;;;;44.28;18.67;;;;;;;;;;5031886;28;20022;-68
2022/11/18 04:34:09;;;;;;;46.22;19.52;;;;;;;;;;5031415;28;20452;-66
2022/11/18 04:36:35;;;;;;;47.63;21.45;;;;;;;;;;5030421;28;20029;-68
2022/11/18 04:39:00;;;;;;;43.35;18.45;;;;;;;;;;5031741;28;20025;-69
2022/11/18 04:41:54;;;;;;;43.20;20.38;;;;;;;;;;5027936;28;20040;-65
2022/11/18 04:44:13;;;;;;;47.63;20.33;;;;;;;;;;5030548;28;20032;-64
2022/11/18 04:46:40;;;;;;;47.53;19.67;;;;;;;;;;5031160;28;20628;-65
2022/11/18 04:49:06;;;;;;;52.92;20.65;;;;;;;;;;5029292;28;20871;-68
2022/11/18 04:51:31;;;;;;;49.97;19.65;;;;;;;;;;5030906;28;20033;-67
2022/11/18 04:53:56;;;;;;;50.30;21.00;;;;;;;;;;5030679;28;20033;-69
2022/11/18 04:56:21;;;;;;;44.83;19.25;;;;;;;;;;5030130;28;20017;-67
2022/11/18 04:58:46;;;;;;;45.55;19.85;;;;;;;;;;5030693;28;20148;-67
2022/11/18 05:01:12;;;;;;;48.65;21.52;;;;;;;;;;5029446;28;20018;-69
2022/11/18 05:03:37;;;;;;;39.55;19.02;;;;;;;;;;5030608;28;20064;-71
2022/11/18 05:06:02;;;;;;;54.28;21.73;;;;;;;;;;5030493;28;20134;-69
2022/11/18 05:08:27;;;;;;;50.53;21.23;;;;;;;;;;5029709;28;20419;-68
2022/11/18 05:12:47;;;;;;;51.88;21.88;;;;;;;;;;5027438;28;20021;-70
2022/11/18 05:13:38;;;;;;;51.13;20.63;;;;;;;;;;5028598;28;20034;-69
2022/11/18 05:16:03;;;;;;;47.00;21.63;;;;;;;;;;5029255;28;20067;-68
2022/11/18 05:18:31;;;;;;;52.72;21.33;;;;;;;;;;5027080;28;20021;-71
2022/11/18 05:20:57;;;;;;;54.38;20.35;;;;;;;;;;5028262;28;20009;-70
2022/11/18 05:23:22;;;;;;;55.13;21.33;;;;;;;;;;5027492;28;20025;-71
2022/11/18 05:25:47;;;;;;;47.45;20.52;;;;;;;;;;5024410;28;20040;-73
2022/11/18 05:28:12;;;;;;;51.72;22.65;;;;;;;;;;5028610;28;20010;-69
2022/11/18 05:30:38;;;;;;;55.35;22.05;;;;;;;;;;5028959;28;20060;-69
2022/11/18 05:33:03;;;;;;;51.15;21.52;;;;;;;;;;5030116;28;20025;-70
2022/11/18 05:35:28;;;;;;;51.80;23.08;;;;;;;;;;5028996;28;20021;-70
2022/11/18 05:37:53;;;;;;;48.60;21.67;;;;;;;;;;5028360;28;20073;-69
2022/11/18 05:40:19;;;;;;;43.08;19.38;;;;;;;;;;5024798;28;20018;-70
2022/11/18 05:45:28;;;;;;;60.97;21.40;;;;;;;;;;5022122;28;20032;-70
2022/11/18 05:47:59;;;;;;;52.05;21.48;;;;;;;;;;5028841;28;20082;-71
2022/11/18 05:50:24;;;;;;;53.50;21.60;;;;;;;;;;5030120;28;20026;-71
2022/11/18 05:52:49;;;;;;;51.33;22.45;;;;;;;;;;5031455;28;20029;-71
2022/11/18 05:55:15;;;;;;;58.03;21.23;;;;;;;;;;5029862;28;20047;-70
2022/11/18 05:57:41;;;;;;;61.42;22.08;;;;;;;;;;5029719;28;20032;-68
2022/11/18 06:00:06;;;;;;;52.28;20.63;;;;;;;;;;5029624;28;20026;-70
2022/11/18 06:02:31;;;;;;;55.05;21.20;;;;;;;;;;5029633;28;20055;-70
2022/11/18 06:04:58;;;;;;;63.53;21.30;;;;;;;;;;5028990;28;20037;-72
2022/11/18 06:07:27;;;;;;;56.60;21.15;;;;;;;;;;5029487;28;20120;-71
2022/11/18 06:09:54;;;;;;;55.30;20.13;;;;;;;;;;5020328;28;20116;-72
2022/11/18 06:12:22;;;;;;;60.35;23.02;;;;;;;;;;5027767;28;20025;-74
2022/11/18 06:14:55;;;;;;;52.03;19.75;;;;;;;;;;5029314;28;20100;-68
2022/11/18 06:17:23;;;;;;;56.30;21.48;;;;;;;;;;5028949;28;20075;-73
2022/11/18 06:19:48;;;;;;;46.07;22.07;;;;;;;;;;5028712;28;20032;-74
2022/11/18 06:22:13;;;;;;;68.15;22.75;;;;;;;;;;5029895;28;20338;-72
2022/11/18 06:24:39;;;;;;;57.28;22.42;;;;;;;;;;5027616;28;20498;-71
2022/11/18 06:27:05;;;;;;;51.15;21.20;;;;;;;;;;5026613;28;20781;-70
2022/11/18 06:29:30;;;;;;;50.03;21.45;;;;;;;;;;5028932;28;20621;-72
2022/11/18 06:31:55;;;;;;;52.35;19.48;;;;;;;;;;5029815;28;20124;-71
2022/11/18 06:34:21;;;;;;;67.45;22.38;;;;;;;;;;5028713;28;20029;-72
2022/11/18 06:36:46;;;;;;;58.33;22.85;;;;;;;;;;5029414;28;20022;-72
2022/11/18 06:39:11;;;;;;;44.30;18.90;;;;;;;;;;5030022;28;20021;-72
2022/11/18 06:41:36;;;;;;;51.35;21.08;;;;;;;;;;5023954;28;20101;-69
2022/11/18 06:44:02;;;;;;;64.70;21.50;;;;;;;;;;5028177;28;20380;-70
2022/11/18 06:49:11;;;;;;;53.75;21.65;;;;;;;;;;5029784;28;20028;-71
2022/11/18 06:51:36;;;;;;;52.83;21.75;;;;;;;;;;5029015;28;20104;-71
2022/11/18 06:54:01;;;;;;;60.55;22.13;;;;;;;;;;5029124;28;20021;-70
2022/11/18 06:56:26;;;;;;;47.88;19.77;;;;;;;;;;5028465;28;20360;-71
2022/11/18 06:58:53;;;;;;;50.40;21.02;;;;;;;;;;5029405;28;20165;-72
2022/11/18 07:01:23;;;;;;;55.88;21.15;;;;;;;;;;5030426;28;20021;-72
2022/11/18 07:03:49;;;;;;;64.93;22.80;;;;;;;;;;5029315;28;20439;-69
2022/11/18 07:06:16;;;;;;;68.53;24.00;;;;;;;;;;5028218;28;20056;-71
2022/11/18 07:08:41;;;;;;;59.72;22.73;;;;;;;;;;5029148;28;20029;-72
2022/11/18 07:11:08;;;;;;;54.80;22.30;;;;;;;;;;5028633;28;20021;-70
2022/11/18 07:13:33;;;;;;;66.18;24.17;;;;;;;;;;5028867;28;20025;-71
2022/11/18 07:16:05;;;;;;;66.10;23.90;;;;;;;;;;5029145;28;20408;-71
2022/11/18 07:18:31;;;;;;;65.18;22.27;;;;;;;;;;5028088;28;20021;-71
2022/11/18 07:20:59;;;;;;;64.97;22.77;;;;;;;;;;5021867;28;20032;-69
2022/11/18 07:23:24;;;;;;;63.20;24.00;;;;;;;;;;5028974;28;20013;-67
2022/11/18 07:25:53;;;;;;;58.10;22.55;;;;;;;;;;5029454;28;20037;-70
2022/11/18 07:28:18;;;;;;;69.45;22.77;;;;;;;;;;5026845;28;20052;-73
2022/11/18 07:30:43;;;;;;;60.83;23.05;;;;;;;;;;5029073;28;20112;-71
2022/11/18 07:33:08;;;;;;;59.75;22.75;;;;;;;;;;5029670;28;20041;-72
2022/11/18 07:35:34;;;;;;;70.35;25.35;;;;;;;;;;5028665;28;20020;-72
2022/11/18 07:37:59;;;;;;;64.45;21.73;;;;;;;;;;5028159;28;20026;-72
2022/11/18 07:40:24;;;;;;;58.42;22.77;;;;;;;;;;5028292;28;20021;-69
2022/11/18 07:42:49;;;;;;;63.28;22.77;;;;;;;;;;5024552;28;20550;-72
2022/11/18 07:45:15;;;;;;;70.65;24.60;;;;;;;;;;5028696;28;20025;-70
2022/11/18 07:47:40;;;;;;;59.30;24.70;;;;;;;;;;5028825;28;20639;-72
2022/11/18 07:50:05;;;;;;;63.58;21.65;;;;;;;;;;5028769;28;20021;-70
2022/11/18 07:52:31;;;;;;;57.83;21.55;;;;;;;;;;5029247;28;20030;-71
2022/11/18 07:54:56;;;;;;;50.30;20.83;;;;;;;;;;5027933;28;20023;-73
2022/11/18 07:57:21;;;;;;;54.00;22.15;;;;;;;;;;5027817;28;20188;-73
2022/11/18 07:59:47;;;;;;;53.17;21.67;;;;;;;;;;5029060;28;20045;-72
2022/11/18 08:02:12;;;;;;;51.90;19.77;;;;;;;;;;5029046;28;20101;-70
2022/11/18 08:04:37;;;;;;;66.22;23.65;;;;;;;;;;5028439;28;20026;-72
2022/11/18 08:07:02;;;;;;;63.47;22.40;;;;;;;;;;5028528;28;20017;-72
2022/11/18 08:09:27;;;;;;;57.75;20.83;;;;;;;;;;5028171;28;20053;-71
2022/11/18 08:11:53;;;;;;;61.35;23.40;;;;;;;;;;5028853;28;20502;-69
2022/11/18 08:14:18;;;;;;;57.83;21.92;;;;;;;;;;5026622;28;20021;-72
2022/11/18 08:16:43;;;;;;;65.57;23.30;;;;;;;;;;5027515;28;20029;-71
2022/11/18 08:19:08;;;;;;;62.28;23.17;;;;;;;;;;5028688;28;20558;-70
2022/11/18 08:21:34;;;;;;;57.22;21.70;;;;;;;;;;5028736;28;20018;-70
2022/11/18 08:23:59;;;;;;;57.28;23.80;;;;;;;;;;5028152;28;20037;-71
2022/11/18 08:26:25;;;;;;;66.80;25.42;;;;;;;;;;5026166;28;20511;-70
2022/11/18 08:28:51;;;;;;;62.53;25.25;;;;;;;;;;5028552;28;20111;-68
2022/11/18 08:31:20;;;;;;;66.80;26.13;;;;;;;;;;5028681;28;20057;-71
2022/11/18 08:33:45;;;;;;;67.78;25.20;;;;;;;;;;5028400;28;20091;-72
2022/11/18 08:36:14;;;;;;;56.15;23.90;;;;;;;;;;5031098;28;20104;-73
2022/11/18 08:38:39;;;;;;;75.03;25.73;;;;;;;;;;5031917;28;20149;-72
2022/11/18 08:41:06;;;;;;;60.08;22.10;;;;;;;;;;5026953;28;20479;-69
2022/11/18 08:43:32;;;;;;;65.30;24.17;;;;;;;;;;5031092;28;20021;-72
2022/11/18 08:45:57;;;;;;;59.35;23.85;;;;;;;;;;5031451;28;20168;-72
2022/11/18 08:48:22;;;;;;;61.30;25.05;;;;;;;;;;5031058;28;20083;-69
2022/11/18 08:50:47;;;;;;;63.72;22.92;;;;;;;;;;5032131;28;20072;-70
2022/11/18 08:53:14;;;;;;;65.82;25.40;;;;;;;;;;5032228;28;20029;-70
2022/11/18 08:55:39;;;;;;;70.53;25.20;;;;;;;;;;5032379;28;20065;-72
2022/11/18 08:58:04;;;;;;;61.25;24.95;;;;;;;;;;5030515;28;20045;-69
2022/11/18 09:00:29;;;;;;;67.28;26.25;;;;;;;;;;5031700;28;20049;-72
2022/11/18 09:02:55;;;;;;;60.25;24.33;;;;;;;;;;5032005;28;20140;-70
2022/11/18 09:05:20;;;;;;;64.47;23.50;;;;;;;;;;5031249;28;20009;-72
2022/11/18 09:07:45;;;;;;;73.38;24.23;;;;;;;;;;5029692;28;20021;-73
2022/11/18 09:10:10;;;;;;;66.07;23.73;;;;;;;;;;5031306;28;20048;-70
2022/11/18 09:12:36;;;;;;;65.03;24.73;;;;;;;;;;5031566;28;20048;-71
2022/11/18 09:15:01;;;;;;;69.32;25.48;;;;;;;;;;5032263;28;20036;-68
2022/11/18 09:17:26;;;;;;;64.32;22.05;;;;;;;;;;5032220;28;20020;-73
2022/11/18 09:19:51;;;;;;;63.38;26.00;;;;;;;;;;5026081;28;20029;-71
2022/11/18 09:22:17;;;;;;;60.10;22.17;;;;;;;;;;5033205;28;20075;-71
2022/11/18 09:24:42;;;;;;;69.22;25.45;;;;;;;;;;5032991;28;20021;-68
2022/11/18 09:27:07;;;;;;;67.22;25.15;;;;;;;;;;5032077;28;20643;-71
2022/11/18 09:29:33;;;;;;;59.13;23.50;;;;;;;;;;5031263;28;20388;-71
2022/11/18 09:32:00;;;;;;;64.25;24.77;;;;;;;;;;5032073;28;20040;-71
2022/11/18 09:34:26;;;;;;;69.35;23.90;;;;;;;;;;5022832;28;20018;-69
2022/11/18 09:36:54;;;;;;;67.57;24.30;;;;;;;;;;5027929;28;20026;-72
2022/11/18 09:39:20;;;;;;;67.07;25.70;;;;;;;;;;5029934;28;20021;-70
2022/11/18 09:41:47;;;;;;;67.43;26.40;;;;;;;;;;5031987;28;20021;-72
2022/11/18 09:44:15;;;;;;;63.13;24.50;;;;;;;;;;5031138;28;20096;-68
2022/11/18 09:46:59;;;;;;;70.13;24.02;;;;;;;;;;5030106;28;20476;-69
2022/11/18 09:49:31;;;;;;;55.63;23.10;;;;;;;;;;5031087;28;20198;-72
2022/11/18 09:52:00;;;;;;;85.95;27.50;;;;;;;;;;5031449;28;20044;-69
2022/11/18 09:54:28;;;;;;;60.78;24.35;;;;;;;;;;5030736;28;20079;-72
2022/11/18 09:56:54;;;;;;;60.25;21.50;;;;;;;;;;5030887;28;20025;-72
2022/11/18 09:59:21;;;;;;;58.40;23.73;;;;;;;;;;5030621;28;20075;-72
2022/11/18 10:01:47;;;;;;;66.20;24.05;;;;;;;;;;5031445;28;20028;-69
2022/11/18 10:04:14;;;;;;;58.00;23.13;;;;;;;;;;5030611;28;20040;-71
2022/11/18 10:06:39;;;;;;;64.20;23.05;;;;;;;;;;5031287;28;20022;-70
2022/11/18 10:09:20;;;;;;;67.20;25.05;;;;;;;;;;5027366;28;20076;-70
2022/11/18 10:11:57;;;;;;;55.90;21.88;;;;;;;;;;5030090;28;20017;-71
2022/11/18 10:14:45;;;;;;;64.45;23.45;;;;;;;;;;5030809;28;20014;-72
2022/11/18 10:17:29;;;;;;;60.53;25.25;;;;;;;;;;5022838;28;20040;-69
2022/11/18 10:20:10;;;;;;;70.40;25.23;;;;;;;;;;5029711;28;20037;-69
2022/11/18 10:22:51;;;;;;;62.08;23.83;;;;;;;;;;5029900;28;20049;-70
2022/11/18 10:25:16;;;;;;;69.43;24.67;;;;;;;;;;5027517;28;20120;-69
2022/11/18 10:27:43;;;;;;;60.42;22.02;;;;;;;;;;5028289;28;20033;-70
2022/11/18 10:30:12;;;;;;;67.18;25.88;;;;;;;;;;5030260;28;20026;-70
2022/11/18 10:32:37;;;;;;;;;;;;;;;;;;5030797;28;20034;-68
2022/11/18 10:35:03;;;;;;;65.15;22.50;;;;;;;;;;5021450;28;19959;-71
2022/11/18 10:37:30;;;;;;;53.67;21.52;;;;;;;;;;5029120;28;20025;-70
2022/11/18 10:39:56;;;;;;;69.05;23.85;;;;;;;;;;5027877;28;20021;-71
2022/11/18 10:42:28;;;;;;;59.25;22.38;;;;;;;;;;5029525;28;20028;-71
2022/11/18 10:44:54;;;;;;;56.35;21.33;;;;;;;;;;5029508;28;20021;-69
2022/11/18 10:47:30;;;;;;;51.05;21.77;;;;;;;;;;5030644;28;20032;-71
2022/11/18 10:49:59;;;;;;;50.63;20.23;;;;;;;;;;5029993;28;20080;-72
2022/11/18 10:52:25;;;;;;;46.05;18.38;;;;;;;;;;5030290;28;20021;-72
2022/11/18 10:55:06;;;;;;;38.83;17.45;;;;;;;;;;5027996;28;20051;-70
2022/11/18 10:57:34;;;;;;;45.95;18.00;;;;;;;;;;5026737;28;20032;-71
2022/11/18 10:59:59;;;;;;;42.10;20.17;;;;;;;;;;5029307;28;20013;-72
2022/11/18 11:02:40;;;;;;;38.75;18.98;;;;;;;;;;5029537;28;20684;-70
2022/11/18 11:05:17;;;;;;;40.72;16.42;;;;;;;;;;5029227;28;20018;-71
2022/11/18 11:07:42;;;;;;;42.42;17.10;;;;;;;;;;5028040;28;20052;-69
2022/11/18 11:10:11;;;;;;;44.20;17.83;;;;;;;;;;5028283;28;20025;-68
2022/11/18 11:12:48;;;;;;;37.80;16.33;;;;;;;;;;5029420;28;20053;-70
2022/11/18 11:15:32;;;;;;;35.60;16.27;;;;;;;;;;5027484;28;20028;-72
2022/11/18 11:18:44;;;;;;;35.90;15.13;;;;;;;;;;5029708;28;20017;-72
2022/11/18 11:20:44;;;;;;;34.30;15.50;;;;;;;;;;5024745;28;20399;-69
2022/11/18 11:23:11;;;;;;;34.40;13.95;;;;;;;;;;5027973;28;20028;-70
2022/11/18 11:25:48;;;;;;;30.50;13.20;;;;;;;;;;5028046;28;20022;-72
2022/11/18 11:28:32;;;;;;;33.53;12.57;;;;;;;;;;5026254;28;20025;-69
2022/11/18 11:30:57;;;;;;;32.42;13.20;;;;;;;;;;5029285;28;20391;-71
2022/11/18 11:33:35;;;;;;;35.17;15.00;;;;;;;;;;5026245;28;20033;-70
2022/11/18 11:36:06;;;;;;;29.92;13.43;;;;;;;;;;5025482;28;20120;-69
2022/11/18 11:38:40;;;;;;;41.47;16.33;;;;;;;;;;5025469;28;20037;-72
2022/11/18 11:41:13;;;;;;;29.27;12.10;;;;;;;;;;5028126;28;20083;-73
2022/11/18 11:43:44;;;;;;;33.72;14.55;;;;;;;;;;5027252;28;20092;-72
2022/11/18 11:46:28;;;;;;;23.52;10.02;;;;;;;;;;5027735;28;20025;-70
2022/11/18 11:49:12;;;;;;;20.70;10.70;;;;;;;;;;5027696;28;20417;-70
2022/11/18 11:51:51;;;;;;;28.85;11.68;;;;;;;;;;5028644;28;20021;-72
2022/11/18 11:54:26;;;;;;;18.83;9.32;;;;;;;;;;5027604;28;20029;-68
2022/11/18 11:56:54;;;;;;;22.42;10.10;;;;;;;;;;5027319;28;20078;-69
2022/11/18 11:59:38;;;;;;;23.43;10.07;;;;;;;;;;5026123;28;20013;-68
2022/11/18 12:02:06;;;;;;;23.75;10.77;;;;;;;;;;5028913;28;20246;-69
2022/11/18 12:04:36;;;;;;;22.15;9.68;;;;;;;;;;5028369;28;20048;-68
2022/11/18 12:07:02;;;;;;;23.23;11.23;;;;;;;;;;5028700;28;20028;-73
2022/11/18 12:09:30;;;;;;;21.50;9.90;;;;;;;;;;5026194;28;20022;-71
2022/11/18 12:12:33;;;;;;;20.73;10.05;;;;;;;;;;5032583;28;20025;-72
2022/11/18 12:14:55;;;;;;;20.08;9.77;;;;;;;;;;5031846;28;20091;-73
2022/11/18 12:17:24;;;;;;;20.52;10.25;;;;;;;;;;5032947;28;20028;-70
2022/11/18 12:19:49;;;;;;;26.40;10.50;;;;;;;;;;5031669;28;20070;-67
2022/11/18 12:22:15;;;;;;;24.00;11.38;;;;;;;;;;5033281;28;20052;-71
2022/11/18 12:24:41;;;;;;;22.63;10.15;;;;;;;;;;5029959;28;20024;-71
2022/11/18 12:27:29;;;;;;;20.65;10.30;;;;;;;;;;5031826;28;20455;-71
2022/11/18 12:29:56;;;;;;;20.25;10.05;;;;;;;;;;5023461;28;20470;-73
2022/11/18 12:32:31;;;;;;;23.05;10.65;;;;;;;;;;5032717;28;20033;-70
2022/11/18 12:35:01;;;;;;;20.88;10.35;;;;;;;;;;5028164;28;20025;-70
2022/11/18 12:37:26;;;;;;;18.50;10.20;;;;;;;;;;5031121;28;20108;-71
2022/11/18 12:39:54;;;;;;;22.58;10.98;;;;;;;;;;5033123;28;20064;-72
2022/11/18 12:45:42;;;;;;;24.08;9.65;;;;;;;;;;5034186;28;20262;-73
2022/11/18 12:48:22;;;;;;;25.95;10.95;;;;;;;;;;5033716;28;20564;-71
2022/11/18 12:50:57;;;;;;;24.80;12.40;;;;;;;;;;5035780;28;20505;-71
2022/11/18 12:53:42;;;;;;;33.17;13.98;;;;;;;;;;5036559;28;20067;-68
2022/11/18 12:56:17;;;;;;;35.85;15.32;;;;;;;;;;5023669;28;20487;-67
2022/11/18 12:58:49;;;;;;;31.40;14.13;;;;;;;;;;5033720;28;20033;-68
2022/11/18 13:01:16;;;;;;;31.15;13.82;;;;;;;;;;5034692;28;20075;-70
2022/11/18 13:03:41;;;;;;;30.77;14.55;;;;;;;;;;5032086;28;20487;-69
2022/11/18 13:06:13;;;;;;;32.58;15.85;;;;;;;;;;5031566;28;20113;-68
2022/11/18 13:08:39;;;;;;;33.28;15.68;;;;;;;;;;5030978;28;20021;-66
2022/11/18 13:19:22;;;;;;;37.75;17.58;;;;;;;;;;5026837;28;20036;-70
2022/11/18 13:24:45;;;;;;;31.48;16.23;;;;;;;;;;5025975;28;20025;-69
2022/11/18 13:27:31;;;;;;;33.17;17.13;;;;;;;;;;5028895;28;20032;-69
2022/11/18 13:29:56;;;;;;;33.20;15.65;;;;;;;;;;5030340;28;20104;-69
2022/11/18 13:32:23;;;;;;;34.60;15.93;;;;;;;;;;5031802;28;20582;-68
2022/11/18 13:34:49;;;;;;;34.75;15.88;;;;;;;;;;5028071;28;20621;-71
2022/11/18 13:37:21;;;;;;;33.97;17.00;;;;;;;;;;5030596;28;20025;-65
2022/11/18 13:39:47;;;;;;;36.83;17.13;;;;;;;;;;5028722;28;20022;-67
2022/11/18 13:42:13;;;;;;;38.97;17.80;;;;;;;;;;5031457;28;20010;-69
2022/11/18 13:44:38;;;;;;;32.78;17.20;;;;;;;;;;5030631;28;20034;-69
2022/11/18 13:47:03;;;;;;;35.03;17.48;;;;;;;;;;5029937;28;20017;-67
2022/11/18 13:49:35;;;;;;;39.80;17.13;;;;;;;;;;5030133;28;20030;-68
2022/11/18 13:52:01;;;;;;;39.53;18.23;;;;;;;;;;5031112;28;20021;-67
2022/11/18 13:54:26;;;;;;;41.83;19.27;;;;;;;;;;5029828;28;20025;-69
2022/11/18 13:56:52;;;;;;;45.42;18.13;;;;;;;;;;5029816;28;20017;-69
2022/11/18 13:59:19;;;;;;;38.38;16.52;;;;;;;;;;5029457;28;20034;-69
2022/11/18 14:01:45;;;;;;;47.05;19.05;;;;;;;;;;5031157;28;20037;-71
2022/11/18 14:04:24;;;;;;;37.50;18.25;;;;;;;;;;5028867;28;20021;-69
2022/11/18 14:06:49;;;;;;;36.00;17.60;;;;;;;;;;5030556;28;20454;-72
2022/11/18 14:09:30;;;;;;;37.70;18.40;;;;;;;;;;5025040;28;20017;-68
2022/11/18 14:12:07;;;;;;;40.08;19.05;;;;;;;;;;5030082;28;20021;-70
2022/11/18 14:14:37;;;;;;;45.35;18.67;;;;;;;;;;5030997;28;20070;-70
2022/11/18 14:17:22;;;;;;;39.25;18.67;;;;;;;;;;5027492;28;20068;-67
2022/11/18 14:19:49;;;;;;;42.53;19.60;;;;;;;;;;5028709;28;20483;-69
2022/11/18 14:22:33;;;;;;;43.15;22.35;;;;;;;;;;5030388;28;20021;-68
2022/11/18 14:25:02;;;;;;;46.88;21.65;;;;;;;;;;5030499;28;20395;-68
2022/11/18 14:27:39;;;;;;;49.42;23.02;;;;;;;;;;5029175;28;20032;-71
2022/11/18 14:30:23;;;;;;;49.35;21.30;;;;;;;;;;5028515;28;20018;-69
2022/11/18 14:33:19;;;;;;;44.42;21.50;;;;;;;;;;5029796;28;20029;-70
2022/11/18 14:35:52;;;;;;;46.22;22.77;;;;;;;;;;5004705;28;20064;-69
2022/11/18 14:38:21;;;;;;;47.85;22.73;;;;;;;;;;5025558;28;20017;-72
2022/11/18 14:40:52;;;;;;;40.95;20.48;;;;;;;;;;5026052;28;20022;-70
2022/11/18 14:43:17;;;;;;;50.60;23.98;;;;;;;;;;5028197;28;20009;-71
2022/11/18 14:45:42;;;;;;;45.40;22.25;;;;;;;;;;5030375;28;20028;-72
2022/11/18 14:48:09;;;;;;;48.65;22.23;;;;;;;;;;5029235;28;20554;-71
2022/11/18 14:50:34;;;;;;;51.28;23.85;;;;;;;;;;5028828;28;20823;-71
2022/11/18 14:53:00;;;;;;;46.80;24.08;;;;;;;;;;5028126;28;20017;-69